createdAt,value
2017-10-12T00:01:13.841Z,13.90
2017-10-12T00:03:41.467Z,13.80
2017-10-12T00:06:09.039Z,13.90
2017-10-12T00:08:36.620Z,13.90
2017-10-12T00:11:05.007Z,13.80
2017-10-12T00:13:32.604Z,13.80
2017-10-12T00:16:00.197Z,13.80
2017-10-12T00:18:27.928Z,13.80
2017-10-12T00:20:55.511Z,13.80
2017-10-12T00:23:23.102Z,13.80
2017-10-12T00:25:51.503Z,13.70
2017-10-12T00:28:19.092Z,13.70
2017-10-12T00:30:46.676Z,13.70
2017-10-12T00:33:14.299Z,13.70
2017-10-12T00:35:42.656Z,13.70
2017-10-12T00:38:11.007Z,13.70
2017-10-12T00:40:39.419Z,13.70
2017-10-12T00:43:07.004Z,13.70
2017-10-12T00:45:34.612Z,13.70
2017-10-12T00:48:02.338Z,13.70
2017-10-12T00:50:29.928Z,13.70
2017-10-12T00:52:57.523Z,13.70
2017-10-12T00:55:25.181Z,13.80
2017-10-12T00:57:52.773Z,13.80
2017-10-12T01:00:20.355Z,13.80
2017-10-12T01:02:48.745Z,13.80
2017-10-12T01:05:16.333Z,13.80
2017-10-12T01:07:43.928Z,13.90
2017-10-12T01:10:11.568Z,13.90
2017-10-12T01:12:39.158Z,13.90
2017-10-12T01:15:06.744Z,13.90
2017-10-12T01:17:34.388Z,13.90
2017-10-12T01:20:02.732Z,13.80
2017-10-12T01:22:31.074Z,13.70
2017-10-12T01:24:58.712Z,13.70
2017-10-12T01:27:26.296Z,13.70
2017-10-12T01:29:53.896Z,13.60
2017-10-12T01:32:21.518Z,13.50
2017-10-12T01:34:49.102Z,13.50
2017-10-12T01:37:16.699Z,13.40
2017-10-12T01:39:44.567Z,13.30
2017-10-12T01:42:12.154Z,13.30
2017-10-12T01:44:40.514Z,13.20
2017-10-12T01:47:08.955Z,13.20
2017-10-12T01:49:36.544Z,13.10
2017-10-12T01:52:04.128Z,13.10
2017-10-12T01:54:31.780Z,13.10
2017-10-12T01:56:59.356Z,13.10
2017-10-12T01:59:27.703Z,13.10
2017-10-12T02:01:55.486Z,13.00
2017-10-12T02:04:23.839Z,13.10
2017-10-12T02:06:52.191Z,13.10
2017-10-12T02:09:20.689Z,13.10
2017-10-12T02:11:48.285Z,13.00
2017-10-12T02:14:15.869Z,13.10
2017-10-12T02:16:43.712Z,13.10
2017-10-12T02:19:11.295Z,13.10
2017-10-12T02:21:38.894Z,13.10
2017-10-12T02:24:07.465Z,13.10
2017-10-12T02:26:35.827Z,13.10
2017-10-12T02:29:04.174Z,13.20
2017-10-12T02:31:32.670Z,13.20
2017-10-12T02:34:00.256Z,13.10
2017-10-12T02:36:27.844Z,13.20
2017-10-12T02:38:56.416Z,13.20
2017-10-12T02:41:23.995Z,13.20
2017-10-12T02:43:51.577Z,13.30
2017-10-12T02:46:19.997Z,13.30
2017-10-12T02:48:47.583Z,13.30
2017-10-12T02:51:15.169Z,13.30
2017-10-12T02:53:42.807Z,13.30
2017-10-12T02:56:10.396Z,13.30
2017-10-12T02:58:37.986Z,13.30
2017-10-12T03:01:05.689Z,13.30
2017-10-12T03:03:33.273Z,13.30
2017-10-12T03:06:01.625Z,13.40
2017-10-12T03:08:30.211Z,13.40
2017-10-12T03:10:57.820Z,13.40
2017-10-12T03:13:25.410Z,13.40
2017-10-12T03:15:53.185Z,13.40
2017-10-12T03:18:20.796Z,13.40
2017-10-12T03:20:48.380Z,13.40
2017-10-12T03:23:16.108Z,13.40
2017-10-12T03:25:43.691Z,13.40
2017-10-12T03:28:11.283Z,13.50
2017-10-12T03:30:39.005Z,13.50
2017-10-12T03:33:07.368Z,13.50
2017-10-12T03:35:35.180Z,13.50
2017-10-12T03:38:02.817Z,13.50
2017-10-12T03:40:30.428Z,13.50
2017-10-12T03:42:58.007Z,13.50
2017-10-12T03:45:25.631Z,13.50
2017-10-12T03:47:53.207Z,13.50
2017-10-12T03:50:20.787Z,13.40
2017-10-12T03:52:50.196Z,13.40
2017-10-12T03:55:17.776Z,13.40
2017-10-12T03:57:45.354Z,13.40
2017-10-12T04:00:13.760Z,13.40
2017-10-12T04:02:41.352Z,13.40
2017-10-12T04:05:08.924Z,13.40
2017-10-12T04:07:36.655Z,13.30
2017-10-12T04:10:04.987Z,13.20
2017-10-12T04:12:32.569Z,13.20
2017-10-12T04:15:04.303Z,13.10
2017-10-12T04:17:33.561Z,13.10
2017-10-12T04:20:03.233Z,13.00
2017-10-12T04:22:34.890Z,13.00
2017-10-12T04:25:05.788Z,12.90
2017-10-12T04:27:37.706Z,12.90
2017-10-12T04:30:08.362Z,12.90
2017-10-12T04:32:36.316Z,13.00
2017-10-12T04:35:03.900Z,13.00
2017-10-12T04:37:32.429Z,13.10
2017-10-12T04:40:05.317Z,13.10
2017-10-12T04:42:33.193Z,13.20
2017-10-12T04:45:01.012Z,13.20
2017-10-12T04:47:29.693Z,13.30
2017-10-12T04:49:58.194Z,13.30
2017-10-12T04:52:25.782Z,13.30
2017-10-12T04:54:53.561Z,13.30
2017-10-12T04:57:21.915Z,13.10
2017-10-12T04:59:51.487Z,13.10
2017-10-12T05:02:19.746Z,13.10
2017-10-12T05:04:47.376Z,13.00
2017-10-12T05:07:14.963Z,13.10
2017-10-12T05:09:42.699Z,13.10
2017-10-12T05:12:11.071Z,13.10
2017-10-12T05:14:39.431Z,13.10
2017-10-12T05:17:07.100Z,13.10
2017-10-12T05:19:34.789Z,13.10
2017-10-12T05:22:02.367Z,13.00
2017-10-12T05:24:30.778Z,13.00
2017-10-12T05:29:51.029Z,13.00
2017-10-12T05:32:18.795Z,13.00
2017-10-12T05:34:46.372Z,13.00
2017-10-12T05:37:20.263Z,13.00
2017-10-12T05:39:49.169Z,13.00
2017-10-12T05:42:16.856Z,12.90
2017-10-12T05:44:44.436Z,12.90
2017-10-12T05:47:12.017Z,12.90
2017-10-12T05:49:39.650Z,12.80
2017-10-12T05:52:07.228Z,12.80
2017-10-12T05:54:34.893Z,12.70
2017-10-12T05:57:02.670Z,12.70
2017-10-12T05:59:31.014Z,12.70
2017-10-12T06:01:58.588Z,12.80
2017-10-12T06:04:27.082Z,12.80
2017-10-12T06:06:54.677Z,12.80
2017-10-12T06:09:23.059Z,12.90
2017-10-12T06:11:51.469Z,12.90
2017-10-12T06:14:19.056Z,12.90
2017-10-12T06:16:47.493Z,13.00
2017-10-12T06:19:15.290Z,13.00
2017-10-12T06:21:42.904Z,13.00
2017-10-12T06:24:10.497Z,13.00
2017-10-12T06:26:38.127Z,13.00
2017-10-12T06:29:05.712Z,13.10
2017-10-12T06:31:33.298Z,13.20
2017-10-12T06:34:01.795Z,13.30
2017-10-12T06:36:29.728Z,13.30
2017-10-12T06:38:57.303Z,13.30
2017-10-12T06:41:25.200Z,13.40
2017-10-12T06:43:53.609Z,13.40
2017-10-12T06:46:21.267Z,13.40
2017-10-12T06:48:48.916Z,13.40
2017-10-12T06:51:16.521Z,13.50
2017-10-12T06:53:44.100Z,13.60
2017-10-12T06:56:11.740Z,13.70
2017-10-12T06:58:39.322Z,13.80
2017-10-12T07:01:06.917Z,13.80
2017-10-12T07:03:34.600Z,13.90
2017-10-12T07:06:02.188Z,14.00
2017-10-12T07:08:29.772Z,14.00
2017-10-12T07:10:57.539Z,14.00
2017-10-12T07:13:26.627Z,14.00
2017-10-12T07:15:55.712Z,14.00
2017-10-12T07:18:23.349Z,14.00
2017-10-12T07:20:50.932Z,13.40
2017-10-12T07:23:18.518Z,14.20
2017-10-12T07:25:46.322Z,14.20
2017-10-12T07:28:13.903Z,14.00
2017-10-12T07:30:41.582Z,14.00
2017-10-12T07:33:09.288Z,13.90
2017-10-12T07:35:36.958Z,13.90
2017-10-12T07:38:04.604Z,13.90
2017-10-12T07:40:32.388Z,13.90
2017-10-12T07:43:00.743Z,14.10
2017-10-12T07:45:28.325Z,14.00
2017-10-12T07:47:55.985Z,14.10
2017-10-12T07:50:23.576Z,14.10
2017-10-12T07:52:51.923Z,14.00
2017-10-12T07:55:20.590Z,14.00
2017-10-12T07:57:48.804Z,14.10
2017-10-12T08:00:16.431Z,14.10
2017-10-12T08:02:44.130Z,14.20
2017-10-12T08:05:11.704Z,14.30
2017-10-12T08:07:41.025Z,14.40
2017-10-12T08:10:08.664Z,14.30
2017-10-12T08:12:36.256Z,14.30
2017-10-12T08:15:03.866Z,14.30
2017-10-12T08:17:31.680Z,14.30
2017-10-12T08:20:03.661Z,14.20
2017-10-12T08:22:31.403Z,14.20
2017-10-12T08:24:58.994Z,14.40
2017-10-12T08:27:26.588Z,14.50
2017-10-12T08:29:54.351Z,14.60
2017-10-12T08:32:21.940Z,14.70
2017-10-12T08:34:50.292Z,15.10
2017-10-12T08:37:18.027Z,15.10
2017-10-12T08:39:45.604Z,15.40
2017-10-12T08:42:13.953Z,15.80
2017-10-12T08:44:41.600Z,15.80
2017-10-12T08:47:09.512Z,16.10
2017-10-12T08:49:37.089Z,16.60
2017-10-12T08:52:04.860Z,16.80
2017-10-12T08:54:33.207Z,17.10
2017-10-12T08:57:00.780Z,17.10
2017-10-12T08:59:28.507Z,17.20
2017-10-12T09:01:56.864Z,17.10
2017-10-12T09:04:25.208Z,16.80
2017-10-12T09:06:52.828Z,16.80
2017-10-12T09:09:20.435Z,16.80
2017-10-12T09:11:48.029Z,16.60
2017-10-12T09:14:15.655Z,16.60
2017-10-12T09:16:43.241Z,16.60
2017-10-12T09:19:10.822Z,16.60
2017-10-12T09:21:38.549Z,16.70
2017-10-12T09:24:06.904Z,16.80
2017-10-12T09:26:35.333Z,16.90
2017-10-12T09:29:03.236Z,16.90
2017-10-12T09:31:30.820Z,16.90
2017-10-12T09:34:00.551Z,17.00
2017-10-12T09:36:28.476Z,17.20
2017-10-12T09:39:08.067Z,17.10
2017-10-12T09:41:35.991Z,17.00
2017-10-12T09:44:04.336Z,16.80
2017-10-12T09:46:31.919Z,16.80
2017-10-12T09:48:59.664Z,16.70
2017-10-12T09:51:27.276Z,16.60
2017-10-12T09:53:56.541Z,16.70
2017-10-12T09:56:24.268Z,16.70
2017-10-12T09:58:51.915Z,16.50
2017-10-12T10:01:19.499Z,16.50
2017-10-12T10:03:47.944Z,16.70
2017-10-12T10:06:15.583Z,16.70
2017-10-12T10:08:43.170Z,16.80
2017-10-12T10:11:11.571Z,17.10
2017-10-12T10:13:39.182Z,17.10
2017-10-12T10:16:06.772Z,17.20
2017-10-12T10:18:34.396Z,17.20
2017-10-12T10:21:01.974Z,17.30
2017-10-12T10:23:31.056Z,17.30
2017-10-12T10:25:58.691Z,17.30
2017-10-12T10:28:26.272Z,17.30
2017-10-12T10:30:54.623Z,17.40
2017-10-12T10:33:22.240Z,17.40
2017-10-12T10:35:49.822Z,17.50
2017-10-12T10:38:18.252Z,17.70
2017-10-12T10:40:45.884Z,17.70
2017-10-12T10:43:13.540Z,17.90
2017-10-12T10:45:41.118Z,17.80
2017-10-12T10:48:09.526Z,17.90
2017-10-12T10:50:37.112Z,17.90
2017-10-12T10:53:04.697Z,17.90
2017-10-12T12:17:30.583Z,18.30
2017-10-12T12:19:58.444Z,18.20
2017-10-12T12:22:26.789Z,17.80
2017-10-12T12:24:55.243Z,17.70
2017-10-12T12:27:22.824Z,17.70
2017-10-12T12:29:50.406Z,17.60
2017-10-12T12:32:18.032Z,17.30
2017-10-12T12:34:45.708Z,17.30
2017-10-12T12:37:13.287Z,17.20
2017-10-12T12:39:41.672Z,16.80
2017-10-12T12:42:09.252Z,16.80
2017-10-12T12:44:36.831Z,16.60
2017-10-12T12:47:05.231Z,16.70
2017-10-12T12:49:32.819Z,16.70
2017-10-12T12:52:00.408Z,16.70
2017-10-12T12:54:31.364Z,16.70
2017-10-12T12:57:00.076Z,16.70
2017-10-12T12:59:28.429Z,16.30
2017-10-12T13:01:56.056Z,16.30
2017-10-12T13:04:23.628Z,16.30
2017-10-12T13:06:52.147Z,16.30
2017-10-12T13:09:19.766Z,16.20
2017-10-12T13:11:47.350Z,16.20
2017-10-12T13:14:14.928Z,16.20
2017-10-12T13:16:43.307Z,15.80
2017-10-12T13:19:10.884Z,15.80
2017-10-12T13:21:38.546Z,15.80
2017-10-12T13:24:06.175Z,15.70
2017-10-12T13:26:34.827Z,15.70
2017-10-12T13:29:02.610Z,15.70
2017-10-12T13:31:31.170Z,15.80
2017-10-12T13:33:58.802Z,15.80
2017-10-12T13:36:26.383Z,15.80
2017-10-12T13:38:54.011Z,15.90
2017-10-12T13:44:19.803Z,16.10
2017-10-12T13:46:47.395Z,16.10
2017-10-12T13:49:14.952Z,16.00
2017-10-12T13:51:42.530Z,16.00
2017-10-12T13:54:10.856Z,15.90
2017-10-12T13:56:38.429Z,15.90
2017-10-12T13:59:06.756Z,15.70
2017-10-12T14:01:34.345Z,15.80
2017-10-12T14:04:02.664Z,15.60
2017-10-12T14:06:30.439Z,15.60
2017-10-12T14:08:57.991Z,15.60
2017-10-12T14:11:26.312Z,15.50
2017-10-12T14:13:53.919Z,15.40
2017-10-12T14:16:21.472Z,15.40
2017-10-12T14:18:49.032Z,15.40
2017-10-12T14:21:16.620Z,15.60
2017-10-12T14:23:44.950Z,15.70
2017-10-12T14:26:12.530Z,15.60
2017-10-12T14:28:40.854Z,15.60
2017-10-12T14:31:08.454Z,15.60
2017-10-12T14:33:36.044Z,14.20
2017-10-12T14:38:31.949Z,15.80
2017-10-12T14:40:59.552Z,15.80
2017-10-12T14:43:27.263Z,15.80
2017-10-12T14:45:54.824Z,15.70
2017-10-12T14:48:23.148Z,15.60
2017-10-12T14:50:50.885Z,15.60
2017-10-12T14:53:18.643Z,15.50
2017-10-12T14:55:46.188Z,14.80
2017-10-12T14:58:14.029Z,15.30
2017-10-12T15:00:41.819Z,15.20
2017-10-12T15:03:10.167Z,15.30
2017-10-12T15:05:37.752Z,15.30
2017-10-12T15:08:05.316Z,15.30
2017-10-12T15:10:32.935Z,15.30
2017-10-12T15:13:00.796Z,15.20
2017-10-12T15:15:28.367Z,15.20
2017-10-12T15:17:55.959Z,15.20
2017-10-12T15:20:24.280Z,15.20
2017-10-12T15:22:51.861Z,15.20
2017-10-12T15:25:20.800Z,15.10
2017-10-12T15:27:48.576Z,15.10
2017-10-12T15:30:16.897Z,15.00
2017-10-12T15:32:44.485Z,15.00
2017-10-12T15:35:13.743Z,14.80
2017-10-12T15:37:42.264Z,14.80
2017-10-12T15:40:09.882Z,14.80
2017-10-12T15:42:39.022Z,14.60
2017-10-12T15:45:07.490Z,14.60
2017-10-12T15:47:36.860Z,14.50
2017-10-12T15:50:04.529Z,14.50
2017-10-12T15:52:33.659Z,14.40
2017-10-12T15:55:01.838Z,14.40
2017-10-12T15:57:29.573Z,14.40
2017-10-12T15:59:57.768Z,14.40
2017-10-12T16:02:26.093Z,14.30
2017-10-12T16:04:53.761Z,14.20
2017-10-12T16:07:21.467Z,14.10
2017-10-12T16:09:49.839Z,13.90
2017-10-12T16:12:17.735Z,13.90
2017-10-12T16:14:45.689Z,13.80
2017-10-12T16:17:14.667Z,13.70
2017-10-12T16:19:42.540Z,13.60
2017-10-12T16:22:10.169Z,13.60
2017-10-12T16:24:38.068Z,13.50
2017-10-12T16:27:05.960Z,13.40
2017-10-12T16:29:33.543Z,13.30
2017-10-12T16:32:01.919Z,13.20
2017-10-12T16:34:29.791Z,13.10
2017-10-12T16:36:57.672Z,13.10
2017-10-12T16:39:26.191Z,13.00
2017-10-12T16:41:55.326Z,13.00
2017-10-12T16:44:23.734Z,12.90
2017-10-12T16:46:51.623Z,12.90
2017-10-12T16:49:20.300Z,12.80
2017-10-12T16:51:48.051Z,12.80
2017-10-12T16:54:15.825Z,12.70
2017-10-12T16:56:44.199Z,12.70
2017-10-12T16:59:12.540Z,12.70
2017-10-12T17:01:41.124Z,12.60
2017-10-12T17:04:09.447Z,12.50
2017-10-12T17:06:37.009Z,12.50
2017-10-12T17:09:04.725Z,12.50
2017-10-12T17:11:32.287Z,12.50
2017-10-12T17:13:59.844Z,12.40
2017-10-12T17:16:27.459Z,12.40
2017-10-12T17:18:55.023Z,12.40
2017-10-12T17:21:22.597Z,12.30
2017-10-12T17:26:17.864Z,12.30
2017-10-12T17:28:45.433Z,12.20
2017-10-12T17:31:13.808Z,12.20
2017-10-12T17:33:41.455Z,12.20
2017-10-12T17:36:09.019Z,12.20
2017-10-12T17:38:36.728Z,12.20
2017-10-12T17:41:05.061Z,12.10
2017-10-12T17:43:32.628Z,12.00
2017-10-12T17:46:01.057Z,11.90
2017-10-12T17:48:28.628Z,11.90
2017-10-12T17:50:56.188Z,11.90
2017-10-12T17:53:24.555Z,11.80
2017-10-12T17:55:52.137Z,11.80
2017-10-12T17:58:19.692Z,11.80
2017-10-12T18:00:47.304Z,11.80
2017-10-12T18:03:14.864Z,11.70
2017-10-12T18:05:42.419Z,11.70
2017-10-12T18:08:10.196Z,11.70
2017-10-12T18:10:37.751Z,11.60
2017-10-12T18:13:06.082Z,11.50
2017-10-12T18:15:33.695Z,11.50
2017-10-12T18:18:01.256Z,11.50
2017-10-12T18:20:28.819Z,11.50
2017-10-12T18:22:56.674Z,11.40
2017-10-12T18:25:24.240Z,11.40
2017-10-12T18:27:52.608Z,11.40
2017-10-12T18:30:21.240Z,11.40
2017-10-12T18:32:49.089Z,11.40
2017-10-12T18:35:17.655Z,11.40
2017-10-12T18:37:45.610Z,11.40
2017-10-12T18:40:14.196Z,11.30
2017-10-12T18:42:42.005Z,11.30
2017-10-12T18:45:09.896Z,11.30
2017-10-12T18:47:37.883Z,11.30
2017-10-12T18:50:05.605Z,11.20
2017-10-12T18:52:34.110Z,11.30
2017-10-12T18:55:01.817Z,11.20
2017-10-12T18:57:29.422Z,11.20
2017-10-12T18:59:57.253Z,11.20
2017-10-12T19:02:24.871Z,11.20
2017-10-12T19:04:53.394Z,11.20
2017-10-12T19:07:21.346Z,11.20
2017-10-12T19:09:49.017Z,11.10
2017-10-12T19:12:16.646Z,11.10
2017-10-12T19:14:44.398Z,11.20
2017-10-12T19:17:13.565Z,11.10
2017-10-12T19:19:42.625Z,11.10
2017-10-12T19:22:10.371Z,11.10
2017-10-12T19:24:37.977Z,11.10
2017-10-12T19:27:06.828Z,11.10
2017-10-12T19:29:34.584Z,11.10
2017-10-12T19:32:02.945Z,11.00
2017-10-12T19:34:30.512Z,11.00
2017-10-12T19:36:58.128Z,11.00
2017-10-12T19:39:25.690Z,11.00
2017-10-12T19:41:54.017Z,10.90
2017-10-12T19:44:21.625Z,10.90
2017-10-12T19:46:49.191Z,11.00
2017-10-12T19:49:17.360Z,11.00
2017-10-12T19:51:46.500Z,11.00
2017-10-12T19:54:14.910Z,11.00
2017-10-12T19:56:42.463Z,11.00
2017-10-12T19:59:10.246Z,11.00
2017-10-12T20:01:37.807Z,11.00
2017-10-12T20:04:05.385Z,11.00
2017-10-12T20:06:33.160Z,10.90
2017-10-12T20:09:01.484Z,10.90
2017-10-12T20:11:29.280Z,10.90
2017-10-12T20:16:25.356Z,10.90
2017-10-12T20:18:52.921Z,10.90
2017-10-12T20:21:21.289Z,11.00
2017-10-12T20:23:49.620Z,11.00
2017-10-12T20:26:18.697Z,11.00
2017-10-12T20:28:46.398Z,11.00
2017-10-12T20:31:13.953Z,11.00
2017-10-12T20:33:41.507Z,10.90
2017-10-12T20:36:09.196Z,11.00
2017-10-12T20:38:36.756Z,10.90
2017-10-12T20:41:05.072Z,10.90
2017-10-12T20:43:32.856Z,10.90
2017-10-12T20:46:00.404Z,10.90
2017-10-12T20:48:28.725Z,10.80
2017-10-12T20:50:56.340Z,10.80
2017-10-12T20:53:23.918Z,10.80
2017-10-12T20:55:51.482Z,10.80
2017-10-12T20:58:19.236Z,10.80
2017-10-12T21:00:46.797Z,10.70
2017-10-12T21:03:15.124Z,10.70
2017-10-12T21:05:42.718Z,10.70
2017-10-12T21:08:10.283Z,10.70
2017-10-12T21:10:37.839Z,10.70
2017-10-12T21:13:05.436Z,10.70
2017-10-12T21:15:33.751Z,10.60
2017-10-12T21:18:01.300Z,10.60
2017-10-12T21:20:29.012Z,10.60
2017-10-12T21:22:56.559Z,10.60
2017-10-12T21:25:24.107Z,10.60
2017-10-12T21:27:51.907Z,10.50
2017-10-12T21:30:19.460Z,10.60
2017-10-12T21:32:47.787Z,10.60
2017-10-12T21:35:15.564Z,10.60
2017-10-12T21:37:43.890Z,10.60
2017-10-12T21:40:11.451Z,10.60
2017-10-12T21:42:39.056Z,10.60
2017-10-12T21:45:06.623Z,10.50
2017-10-12T21:47:34.952Z,10.50
2017-10-12T21:50:03.452Z,10.50
2017-10-12T21:52:31.028Z,10.50
2017-10-12T21:54:59.368Z,10.50
2017-10-12T21:57:26.963Z,10.50
2017-10-12T21:59:54.514Z,10.50
2017-10-12T22:02:23.193Z,10.50
2017-10-12T22:04:50.796Z,10.50
2017-10-12T22:07:19.108Z,10.60
2017-10-12T22:09:46.663Z,10.50
2017-10-12T22:12:14.256Z,10.60
2017-10-12T22:14:41.831Z,10.60
2017-10-12T22:17:09.383Z,10.60
2017-10-12T22:19:36.987Z,10.60
2017-10-12T22:22:05.307Z,10.70
2017-10-12T22:24:32.867Z,10.60
2017-10-12T22:27:00.472Z,10.70
2017-10-12T22:29:28.029Z,10.70
2017-10-12T22:31:55.589Z,10.70
2017-10-12T22:34:23.187Z,10.70
2017-10-12T22:36:50.744Z,10.80
2017-10-12T22:39:18.295Z,10.80
2017-10-12T22:41:46.080Z,10.80
2017-10-12T22:44:13.640Z,10.80
2017-10-12T22:46:41.955Z,10.70
2017-10-12T22:49:09.655Z,10.70
2017-10-12T22:51:37.238Z,10.70
2017-10-12T22:54:04.804Z,10.70
2017-10-12T22:56:32.564Z,10.60
2017-10-12T22:59:00.888Z,10.50
2017-10-12T23:01:28.441Z,10.50
2017-10-12T23:03:56.039Z,10.50
2017-10-12T23:06:23.611Z,10.50
2017-10-12T23:08:51.160Z,10.40
2017-10-12T23:11:18.751Z,10.40
2017-10-12T23:13:47.082Z,10.30
2017-10-12T23:16:15.410Z,10.30
2017-10-12T23:18:43.224Z,10.30
2017-10-12T23:21:11.548Z,10.30
2017-10-12T23:23:39.261Z,10.30
2017-10-12T23:26:06.863Z,10.30
2017-10-12T23:28:34.426Z,10.30
2017-10-12T23:31:02.745Z,10.20
2017-10-12T23:33:30.606Z,10.20
2017-10-12T23:35:58.150Z,10.20
2017-10-12T23:38:25.704Z,10.10
2017-10-12T23:40:53.460Z,10.20
2017-10-12T23:43:21.011Z,10.10
2017-10-12T23:45:49.328Z,10.00
2017-10-12T23:48:17.123Z,10.00
2017-10-12T23:50:45.438Z,10.00
2017-10-12T23:53:12.989Z,10.00
2017-10-12T23:55:40.584Z,10.00
2017-10-12T23:58:08.891Z,9.90
